»·PEaware :: N5268J KCMA-KSNA

N5268J :: KCMA-KSNA

FLIGHT INFORMATION

Flight Status: Arrived
Operator: Privately registered:
United States
More flights under this callsign
Pilot: John P. (31881)
Aircraft: BEECH AIRCRAFT BONANZA
(BE36)
More flights by this aircraft type
Origin: KCMA Camarillo
United States
Destination: KSNA John Wayne-Orange Co
United States
More flights between these airports :: More routes between these airports
Route: CMA VNY LAX VPLVT SNA
File this flight plan on PilotEdge
Remarks: Coastal Route
Altitude:
(Current/Filed)
5,500ft
Speed:
(Current/Filed)
167kts
Departed: 22-Oct-20 04:15 PM
Arrived: 22-Oct-20 05:04 PM
Distance/Time
Traveled:
69nm/0:49
Distance/Time
To Go:
Arrived

Flight Plot

Page will automatically refresh every two minutes.

Flight plan parsing failed; only flown route is shown


Map Options




Map Legend


Flown Route
Filed Route
Departure Airport
Arrival Airport
Navaid (VOR, NDB)
Fix

Horizontal Profiles

Position Reports

Time Latitude Longitude Heading Altitude Ground
Speed
22-Oct-20 15:37 0.000408 0.013975 359 3ft 0kts
22-Oct-20 15:38 0.000408 0.013975 359 3ft 0kts
22-Oct-20 15:39 0.000408 0.013975 359 3ft 0kts
22-Oct-20 15:41 0.000408 0.013975 359 3ft 0kts
22-Oct-20 15:42 34.210686 -119.092100 180 70ft 0kts
22-Oct-20 15:43 34.210686 -119.092100 180 70ft 0kts
22-Oct-20 15:44 34.210686 -119.092100 180 72ft 0kts
22-Oct-20 15:45 34.210673 -119.092100 177 72ft 0kts
22-Oct-20 15:46 34.210673 -119.092100 177 72ft 0kts
22-Oct-20 15:47 34.210673 -119.092100 177 72ft 0kts
22-Oct-20 15:48 34.210673 -119.092100 177 72ft 0kts
22-Oct-20 15:49 34.210673 -119.092100 177 72ft 0kts
22-Oct-20 15:50 34.210673 -119.092100 177 72ft 0kts
22-Oct-20 15:51 34.210673 -119.092100 177 72ft 0kts
22-Oct-20 15:52 34.210673 -119.092100 177 72ft 0kts
22-Oct-20 15:53 34.210673 -119.092100 177 72ft 0kts
22-Oct-20 15:54 34.210673 -119.092100 177 72ft 0kts
22-Oct-20 15:54 34.210673 -119.092100 177 72ft 0kts
22-Oct-20 15:56 34.210673 -119.092100 177 72ft 0kts
22-Oct-20 15:57 34.210673 -119.092100 177 72ft 0kts
22-Oct-20 15:58 34.210673 -119.092100 177 72ft 0kts
22-Oct-20 15:59 34.210673 -119.092100 177 72ft 0kts
22-Oct-20 15:59 34.210673 -119.092100 177 72ft 0kts
22-Oct-20 16:01 34.210673 -119.092100 177 72ft 0kts
22-Oct-20 16:01 34.210666 -119.092100 168 72ft 0kts
22-Oct-20 16:03 34.210974 -119.091163 89 74ft 5kts
22-Oct-20 16:03 34.211485 -119.089881 312 76ft 16kts
22-Oct-20 16:05 34.212285 -119.090811 140 75ft 17kts
22-Oct-20 16:05 34.210919 -119.086138 95 78ft 22kts
22-Oct-20 16:06 34.212376 -119.084032 0 78ft 0kts
22-Oct-20 16:07 34.212376 -119.084032 0 78ft 0kts
22-Oct-20 16:08 34.212376 -119.084032 0 78ft 0kts
22-Oct-20 16:09 34.212376 -119.084032 0 78ft 0kts
22-Oct-20 16:10 34.212376 -119.084032 0 78ft 0kts
22-Oct-20 16:11 34.212376 -119.084032 0 78ft 0kts
22-Oct-20 16:12 34.212376 -119.084032 0 78ft 0kts
22-Oct-20 16:13 34.212821 -119.084551 357 78ft 0kts
22-Oct-20 16:14 34.213784 -119.096615 270 167ft 97kts
22-Oct-20 16:15 34.207917 -119.132036 179 922ft 137kts
22-Oct-20 16:16 34.195343 -119.101821 99 2361ft 86kts
22-Oct-20 16:17 34.195500 -119.071679 89 3266ft 93kts
22-Oct-20 16:18 34.206044 -119.044952 81 3937ft 102kts
22-Oct-20 16:19 34.206415 -119.010509 90 4471ft 104kts
22-Oct-20 16:20 34.218195 -118.981609 36 4705ft 106kts
22-Oct-20 16:21 34.231512 -118.951059 78 4850ft 109kts
22-Oct-20 16:22 34.236278 -118.914686 82 4940ft 110kts
22-Oct-20 16:23 34.240686 -118.877918 81 5114ft 112kts
22-Oct-20 16:24 34.246253 -118.832754 81 5409ft 156kts
22-Oct-20 16:25 34.252237 -118.777902 87 5419ft 168kts
22-Oct-20 16:26 34.247884 -118.721161 98 5419ft 170kts
22-Oct-20 16:27 34.241836 -118.664371 97 5452ft 168kts
22-Oct-20 16:28 34.235915 -118.608516 97 5401ft 172kts
22-Oct-20 16:29 34.230129 -118.554067 98 5499ft 168kts
22-Oct-20 16:30 34.222579 -118.499084 126 5485ft 168kts
22-Oct-20 16:31 34.198852 -118.504333 280 5785ft 149kts
22-Oct-20 16:32 34.198972 -118.555365 276 5903ft 162kts
22-Oct-20 16:33 34.217902 -118.602045 265 6065ft 158kts
22-Oct-20 16:34 34.185539 -118.582368 159 5672ft 161kts
22-Oct-20 16:35 34.144992 -118.555909 152 4764ft 163kts
22-Oct-20 16:36 34.139371 -118.581145 276 5355ft 104kts
22-Oct-20 16:37 34.146795 -118.615283 332 5497ft 118kts
22-Oct-20 16:38 34.173554 -118.597194 89 5499ft 128kts
22-Oct-20 16:39 34.172451 -118.552906 109 5490ft 132kts
22-Oct-20 16:40 34.141876 -118.530788 156 5490ft 131kts
22-Oct-20 16:41 34.108794 -118.512208 155 5497ft 131kts
22-Oct-20 16:42 34.075714 -118.493606 156 5500ft 132kts
22-Oct-20 16:43 34.041977 -118.476151 158 5496ft 131kts
22-Oct-20 16:44 34.017448 -118.464646 160 5497ft 130kts
22-Oct-20 16:45 33.990499 -118.452279 160 5473ft 131kts
22-Oct-20 16:46 33.956644 -118.438402 165 5393ft 133kts
22-Oct-20 16:47 33.921916 -118.421955 136 5400ft 160kts
22-Oct-20 16:48 33.890758 -118.384626 136 5398ft 165kts
22-Oct-20 16:49 33.858902 -118.347609 136 5401ft 166kts
22-Oct-20 16:50 33.826744 -118.310361 136 5400ft 166kts
22-Oct-20 16:51 33.793808 -118.272261 136 5401ft 166kts
22-Oct-20 16:52 33.761107 -118.233306 135 5402ft 166kts
22-Oct-20 16:53 33.728388 -118.194190 135 5401ft 165kts
22-Oct-20 16:54 33.702884 -118.150449 101 5403ft 166kts
22-Oct-20 16:55 33.702701 -118.094627 89 5400ft 167kts
22-Oct-20 16:56 33.704976 -118.038913 93 5401ft 167kts
22-Oct-20 16:57 33.698148 -117.987652 103 5409ft 150kts
22-Oct-20 16:58 33.689491 -117.940737 103 5408ft 148kts
22-Oct-20 16:59 33.655555 -117.918564 155 2875ft 154kts
22-Oct-20 17:00 33.691137 -117.899193 30 1268ft 150kts
22-Oct-20 17:01 33.712794 -117.868593 112 1197ft 114kts
22-Oct-20 17:02 33.688218 -117.860841 208 231ft 109kts
22-Oct-20 17:03 33.675988 -117.869841 294 55ft 0kts
22-Oct-20 17:04 33.676149 -117.870452 286 53ft 16kts
22-Oct-20 17:05 33.676236 -117.871701 282 51ft 0kts
22-Oct-20 17:06 33.676236 -117.871701 282 51ft 0kts
22-Oct-20 17:07 33.676236 -117.871701 282 51ft 0kts
22-Oct-20 17:08 33.676236 -117.871701 282 51ft 0kts
22-Oct-20 17:09 33.676236 -117.871701 282 51ft 0kts

Navigation Log

Ident Type
Flight plan parsing failed, navigation log unavailable